sensor_id;sensor_type;location;lat;lon;timestamp;P1;durP1;ratioP1;P2;durP2;ratioP2
17650;SDS011;26663;59.302;18.082;2022-08-02T00:03:01;11.73;;;2.55;;
17650;SDS011;26663;59.302;18.082;2022-08-02T00:06:09;17.00;;;3.35;;
17650;SDS011;26663;59.302;18.082;2022-08-02T00:09:15;11.23;;;2.40;;
17650;SDS011;26663;59.302;18.082;2022-08-02T00:12:23;11.85;;;1.85;;
17650;SDS011;26663;59.302;18.082;2022-08-02T00:15:28;19.20;;;2.45;;
17650;SDS011;26663;59.302;18.082;2022-08-02T00:18:35;18.52;;;2.63;;
17650;SDS011;26663;59.302;18.082;2022-08-02T00:21:43;13.20;;;2.53;;
17650;SDS011;26663;59.302;18.082;2022-08-02T00:24:48;5.65;;;2.20;;
17650;SDS011;26663;59.302;18.082;2022-08-02T00:27:53;14.40;;;2.65;;
17650;SDS011;26663;59.302;18.082;2022-08-02T00:30:59;17.00;;;2.90;;
17650;SDS011;26663;59.302;18.082;2022-08-02T00:34:05;13.73;;;2.50;;
17650;SDS011;26663;59.302;18.082;2022-08-02T00:37:31;22.58;;;2.80;;
17650;SDS011;26663;59.302;18.082;2022-08-02T00:40:36;32.53;;;3.00;;
17650;SDS011;26663;59.302;18.082;2022-08-02T00:43:41;20.45;;;2.78;;
17650;SDS011;26663;59.302;18.082;2022-08-02T00:46:47;23.20;;;3.17;;
17650;SDS011;26663;59.302;18.082;2022-08-02T00:49:53;22.83;;;2.50;;
17650;SDS011;26663;59.302;18.082;2022-08-02T00:52:59;9.88;;;2.58;;
17650;SDS011;26663;59.302;18.082;2022-08-02T00:56:05;14.73;;;2.83;;
17650;SDS011;26663;59.302;18.082;2022-08-02T00:59:10;11.68;;;2.63;;
17650;SDS011;26663;59.302;18.082;2022-08-02T01:02:17;20.20;;;2.60;;
17650;SDS011;26663;59.302;18.082;2022-08-02T01:05:23;21.52;;;3.08;;
17650;SDS011;26663;59.302;18.082;2022-08-02T01:08:29;9.98;;;3.10;;
17650;SDS011;26663;59.302;18.082;2022-08-02T01:11:35;15.32;;;2.70;;
17650;SDS011;26663;59.302;18.082;2022-08-02T01:14:40;26.88;;;2.95;;
17650;SDS011;26663;59.302;18.082;2022-08-02T01:17:48;26.42;;;3.72;;
17650;SDS011;26663;59.302;18.082;2022-08-02T01:21:05;34.75;;;3.88;;
17650;SDS011;26663;59.302;18.082;2022-08-02T01:24:28;28.75;;;3.72;;
17650;SDS011;26663;59.302;18.082;2022-08-02T01:27:47;28.48;;;3.50;;
17650;SDS011;26663;59.302;18.082;2022-08-02T01:31:13;20.95;;;3.10;;
17650;SDS011;26663;59.302;18.082;2022-08-02T01:34:27;18.05;;;3.10;;
17650;SDS011;26663;59.302;18.082;2022-08-02T01:37:38;25.67;;;3.20;;
17650;SDS011;26663;59.302;18.082;2022-08-02T01:40:46;17.75;;;3.03;;
17650;SDS011;26663;59.302;18.082;2022-08-02T01:43:56;13.80;;;3.38;;
17650;SDS011;26663;59.302;18.082;2022-08-02T01:47:03;21.75;;;2.97;;
17650;SDS011;26663;59.302;18.082;2022-08-02T01:50:13;30.25;;;2.70;;
17650;SDS011;26663;59.302;18.082;2022-08-02T01:53:20;8.18;;;2.50;;
17650;SDS011;26663;59.302;18.082;2022-08-02T01:56:27;12.45;;;2.42;;
17650;SDS011;26663;59.302;18.082;2022-08-02T01:59:34;10.75;;;2.70;;
17650;SDS011;26663;59.302;18.082;2022-08-02T02:02:41;7.32;;;2.28;;
17650;SDS011;26663;59.302;18.082;2022-08-02T02:05:49;21.45;;;2.72;;
17650;SDS011;26663;59.302;18.082;2022-08-02T02:08:56;18.00;;;3.97;;
17650;SDS011;26663;59.302;18.082;2022-08-02T02:12:03;8.63;;;2.75;;
17650;SDS011;26663;59.302;18.082;2022-08-02T02:15:17;9.85;;;2.42;;
17650;SDS011;26663;59.302;18.082;2022-08-02T02:18:23;12.60;;;2.22;;
17650;SDS011;26663;59.302;18.082;2022-08-02T02:21:31;8.13;;;2.00;;
17650;SDS011;26663;59.302;18.082;2022-08-02T02:24:37;5.00;;;2.05;;
17650;SDS011;26663;59.302;18.082;2022-08-02T02:27:45;2.00;;;1.85;;
17650;SDS011;26663;59.302;18.082;2022-08-02T02:30:59;8.23;;;1.92;;
17650;SDS011;26663;59.302;18.082;2022-08-02T02:34:12;8.15;;;2.17;;
17650;SDS011;26663;59.302;18.082;2022-08-02T02:37:20;5.78;;;1.95;;
17650;SDS011;26663;59.302;18.082;2022-08-02T02:40:27;7.70;;;2.28;;
17650;SDS011;26663;59.302;18.082;2022-08-02T02:43:33;7.15;;;2.08;;
17650;SDS011;26663;59.302;18.082;2022-08-02T02:46:40;3.65;;;1.88;;
17650;SDS011;26663;59.302;18.082;2022-08-02T02:49:48;4.00;;;2.20;;
17650;SDS011;26663;59.302;18.082;2022-08-02T02:52:55;2.00;;;1.90;;
17650;SDS011;26663;59.302;18.082;2022-08-02T02:56:01;1.90;;;1.88;;
17650;SDS011;26663;59.302;18.082;2022-08-02T02:59:07;1.90;;;1.90;;
17650;SDS011;26663;59.302;18.082;2022-08-02T03:02:15;1.88;;;1.80;;
17650;SDS011;26663;59.302;18.082;2022-08-02T03:05:21;1.60;;;1.60;;
17650;SDS011;26663;59.302;18.082;2022-08-02T03:08:27;1.80;;;1.80;;
17650;SDS011;26663;59.302;18.082;2022-08-02T03:11:32;1.88;;;1.88;;
17650;SDS011;26663;59.302;18.082;2022-08-02T03:14:40;1.83;;;1.83;;
17650;SDS011;26663;59.302;18.082;2022-08-02T03:17:52;1.63;;;1.63;;
17650;SDS011;26663;59.302;18.082;2022-08-02T03:20:58;2.30;;;2.20;;
17650;SDS011;26663;59.302;18.082;2022-08-02T03:24:05;2.05;;;1.90;;
17650;SDS011;26663;59.302;18.082;2022-08-02T03:27:11;1.98;;;1.98;;
17650;SDS011;26663;59.302;18.082;2022-08-02T03:30:16;1.70;;;1.70;;
17650;SDS011;26663;59.302;18.082;2022-08-02T03:33:23;1.67;;;1.67;;
17650;SDS011;26663;59.302;18.082;2022-08-02T03:36:30;2.00;;;1.90;;
17650;SDS011;26663;59.302;18.082;2022-08-02T03:39:37;2.05;;;1.95;;
17650;SDS011;26663;59.302;18.082;2022-08-02T03:42:55;2.10;;;2.00;;
17650;SDS011;26663;59.302;18.082;2022-08-02T03:46:00;2.03;;;1.92;;
17650;SDS011;26663;59.302;18.082;2022-08-02T03:49:09;1.85;;;1.85;;
17650;SDS011;26663;59.302;18.082;2022-08-02T03:52:15;1.75;;;1.65;;
17650;SDS011;26663;59.302;18.082;2022-08-02T03:55:21;1.98;;;1.88;;
17650;SDS011;26663;59.302;18.082;2022-08-02T03:58:26;1.88;;;1.88;;
17650;SDS011;26663;59.302;18.082;2022-08-02T04:01:31;3.65;;;2.00;;
17650;SDS011;26663;59.302;18.082;2022-08-02T04:04:38;2.28;;;1.95;;
17650;SDS011;26663;59.302;18.082;2022-08-02T04:07:44;3.13;;;2.30;;
17650;SDS011;26663;59.302;18.082;2022-08-02T04:11:10;1.92;;;1.92;;
17650;SDS011;26663;59.302;18.082;2022-08-02T04:14:34;2.40;;;2.30;;
17650;SDS011;26663;59.302;18.082;2022-08-02T04:17:40;2.50;;;2.30;;
17650;SDS011;26663;59.302;18.082;2022-08-02T04:20:50;2.30;;;2.28;;
17650;SDS011;26663;59.302;18.082;2022-08-02T04:23:57;2.10;;;2.10;;
17650;SDS011;26663;59.302;18.082;2022-08-02T04:27:03;2.08;;;2.08;;
17650;SDS011;26663;59.302;18.082;2022-08-02T04:30:29;2.30;;;2.20;;
17650;SDS011;26663;59.302;18.082;2022-08-02T04:33:34;4.40;;;2.30;;
17650;SDS011;26663;59.302;18.082;2022-08-02T04:36:41;2.30;;;2.20;;
17650;SDS011;26663;59.302;18.082;2022-08-02T04:39:47;3.28;;;2.25;;
17650;SDS011;26663;59.302;18.082;2022-08-02T04:42:52;2.10;;;2.10;;
17650;SDS011;26663;59.302;18.082;2022-08-02T04:45:57;2.10;;;2.10;;
17650;SDS011;26663;59.302;18.082;2022-08-02T04:49:05;1.80;;;1.80;;
17650;SDS011;26663;59.302;18.082;2022-08-02T04:52:12;2.40;;;2.30;;
17650;SDS011;26663;59.302;18.082;2022-08-02T04:55:17;2.30;;;2.20;;
17650;SDS011;26663;59.302;18.082;2022-08-02T04:58:24;2.60;;;2.15;;
17650;SDS011;26663;59.302;18.082;2022-08-02T05:01:45;2.33;;;2.33;;
17650;SDS011;26663;59.302;18.082;2022-08-02T05:04:50;2.33;;;2.22;;
17650;SDS011;26663;59.302;18.082;2022-08-02T05:07:57;2.28;;;2.10;;
17650;SDS011;26663;59.302;18.082;2022-08-02T05:11:02;2.13;;;2.10;;
17650;SDS011;26663;59.302;18.082;2022-08-02T05:14:08;2.08;;;1.98;;
17650;SDS011;26663;59.302;18.082;2022-08-02T05:17:14;2.28;;;2.20;;
17650;SDS011;26663;59.302;18.082;2022-08-02T05:20:19;2.67;;;2.20;;
17650;SDS011;26663;59.302;18.082;2022-08-02T05:23:26;2.28;;;2.22;;
17650;SDS011;26663;59.302;18.082;2022-08-02T05:26:31;2.20;;;2.10;;
17650;SDS011;26663;59.302;18.082;2022-08-02T05:29:36;2.53;;;2.40;;
17650;SDS011;26663;59.302;18.082;2022-08-02T05:32:55;2.40;;;2.30;;
17650;SDS011;26663;59.302;18.082;2022-08-02T05:36:00;2.72;;;2.50;;
17650;SDS011;26663;59.302;18.082;2022-08-02T05:39:07;2.60;;;2.40;;
17650;SDS011;26663;59.302;18.082;2022-08-02T05:42:14;2.60;;;2.60;;
17650;SDS011;26663;59.302;18.082;2022-08-02T05:45:20;2.50;;;2.40;;
17650;SDS011;26663;59.302;18.082;2022-08-02T05:48:25;2.50;;;2.15;;
17650;SDS011;26663;59.302;18.082;2022-08-02T05:51:35;2.25;;;2.05;;
17650;SDS011;26663;59.302;18.082;2022-08-02T05:54:47;2.00;;;1.90;;
17650;SDS011;26663;59.302;18.082;2022-08-02T05:57:55;2.10;;;2.10;;
17650;SDS011;26663;59.302;18.082;2022-08-02T06:01:07;1.90;;;1.90;;
17650;SDS011;26663;59.302;18.082;2022-08-02T06:04:17;1.80;;;1.80;;
17650;SDS011;26663;59.302;18.082;2022-08-02T06:07:29;1.85;;;1.85;;
17650;SDS011;26663;59.302;18.082;2022-08-02T06:10:36;2.08;;;2.08;;
17650;SDS011;26663;59.302;18.082;2022-08-02T06:13:42;3.28;;;1.70;;
17650;SDS011;26663;59.302;18.082;2022-08-02T06:16:47;2.67;;;1.73;;
17650;SDS011;26663;59.302;18.082;2022-08-02T06:19:54;1.73;;;1.73;;
17650;SDS011;26663;59.302;18.082;2022-08-02T06:23:01;1.65;;;1.60;;
17650;SDS011;26663;59.302;18.082;2022-08-02T06:26:15;1.95;;;1.80;;
17650;SDS011;26663;59.302;18.082;2022-08-02T06:29:21;1.60;;;1.60;;
17650;SDS011;26663;59.302;18.082;2022-08-02T06:32:27;1.70;;;1.70;;
17650;SDS011;26663;59.302;18.082;2022-08-02T06:35:32;1.50;;;1.50;;
17650;SDS011;26663;59.302;18.082;2022-08-02T06:38:43;1.88;;;1.67;;
17650;SDS011;26663;59.302;18.082;2022-08-02T06:41:55;1.50;;;1.50;;
17650;SDS011;26663;59.302;18.082;2022-08-02T06:45:14;1.55;;;1.55;;
17650;SDS011;26663;59.302;18.082;2022-08-02T06:48:20;1.40;;;1.40;;
17650;SDS011;26663;59.302;18.082;2022-08-02T06:51:25;1.40;;;1.40;;
17650;SDS011;26663;59.302;18.082;2022-08-02T06:54:30;1.60;;;1.60;;
17650;SDS011;26663;59.302;18.082;2022-08-02T06:57:38;1.60;;;1.60;;
17650;SDS011;26663;59.302;18.082;2022-08-02T07:00:43;1.48;;;1.48;;
17650;SDS011;26663;59.302;18.082;2022-08-02T07:03:48;1.60;;;1.60;;
17650;SDS011;26663;59.302;18.082;2022-08-02T07:06:54;3.30;;;1.60;;
17650;SDS011;26663;59.302;18.082;2022-08-02T07:09:59;1.60;;;1.50;;
17650;SDS011;26663;59.302;18.082;2022-08-02T07:13:07;4.20;;;1.40;;
17650;SDS011;26663;59.302;18.082;2022-08-02T07:16:12;1.73;;;1.63;;
17650;SDS011;26663;59.302;18.082;2022-08-02T07:19:17;1.85;;;1.70;;
17650;SDS011;26663;59.302;18.082;2022-08-02T07:22:24;1.48;;;1.48;;
17650;SDS011;26663;59.302;18.082;2022-08-02T07:25:30;1.48;;;1.48;;
17650;SDS011;26663;59.302;18.082;2022-08-02T07:28:57;1.77;;;1.67;;
17650;SDS011;26663;59.302;18.082;2022-08-02T07:32:02;1.67;;;1.60;;
17650;SDS011;26663;59.302;18.082;2022-08-02T07:35:10;1.70;;;1.60;;
17650;SDS011;26663;59.302;18.082;2022-08-02T07:38:21;1.58;;;1.52;;
17650;SDS011;26663;59.302;18.082;2022-08-02T07:41:28;1.67;;;1.58;;
17650;SDS011;26663;59.302;18.082;2022-08-02T07:44:35;1.38;;;1.38;;
17650;SDS011;26663;59.302;18.082;2022-08-02T07:47:41;1.58;;;1.58;;
17650;SDS011;26663;59.302;18.082;2022-08-02T07:50:48;1.73;;;1.73;;
17650;SDS011;26663;59.302;18.082;2022-08-02T07:53:54;1.77;;;1.63;;
17650;SDS011;26663;59.302;18.082;2022-08-02T07:57:09;6.32;;;2.00;;
17650;SDS011;26663;59.302;18.082;2022-08-02T08:00:16;1.55;;;1.55;;
17650;SDS011;26663;59.302;18.082;2022-08-02T08:03:22;1.88;;;1.60;;
17650;SDS011;26663;59.302;18.082;2022-08-02T08:06:27;1.73;;;1.73;;
17650;SDS011;26663;59.302;18.082;2022-08-02T08:09:32;3.40;;;1.75;;
17650;SDS011;26663;59.302;18.082;2022-08-02T08:12:41;2.15;;;2.05;;
17650;SDS011;26663;59.302;18.082;2022-08-02T08:15:48;1.90;;;1.80;;
17650;SDS011;26663;59.302;18.082;2022-08-02T08:18:54;1.80;;;1.80;;
17650;SDS011;26663;59.302;18.082;2022-08-02T08:22:00;1.50;;;1.40;;
17650;SDS011;26663;59.302;18.082;2022-08-02T08:25:06;1.88;;;1.88;;
17650;SDS011;26663;59.302;18.082;2022-08-02T08:28:12;1.60;;;1.60;;
17650;SDS011;26663;59.302;18.082;2022-08-02T08:31:18;1.80;;;1.70;;
17650;SDS011;26663;59.302;18.082;2022-08-02T08:34:27;1.83;;;1.73;;
17650;SDS011;26663;59.302;18.082;2022-08-02T08:37:33;2.28;;;2.28;;
17650;SDS011;26663;59.302;18.082;2022-08-02T08:40:39;3.67;;;1.70;;
17650;SDS011;26663;59.302;18.082;2022-08-02T08:43:46;1.55;;;1.55;;
17650;SDS011;26663;59.302;18.082;2022-08-02T08:46:56;1.55;;;1.55;;
17650;SDS011;26663;59.302;18.082;2022-08-02T08:50:03;1.92;;;1.92;;
17650;SDS011;26663;59.302;18.082;2022-08-02T08:53:18;2.05;;;1.50;;
17650;SDS011;26663;59.302;18.082;2022-08-02T08:56:39;1.40;;;1.40;;
17650;SDS011;26663;59.302;18.082;2022-08-02T08:59:44;2.47;;;2.38;;
17650;SDS011;26663;59.302;18.082;2022-08-02T09:02:51;5.57;;;1.38;;
17650;SDS011;26663;59.302;18.082;2022-08-02T09:05:57;6.47;;;1.83;;
17650;SDS011;26663;59.302;18.082;2022-08-02T09:09:03;1.38;;;1.20;;
17650;SDS011;26663;59.302;18.082;2022-08-02T09:12:12;1.52;;;1.42;;
17650;SDS011;26663;59.302;18.082;2022-08-02T09:15:20;1.90;;;1.80;;
17650;SDS011;26663;59.302;18.082;2022-08-02T09:18:30;1.52;;;1.40;;
17650;SDS011;26663;59.302;18.082;2022-08-02T09:21:36;1.95;;;1.30;;
17650;SDS011;26663;59.302;18.082;2022-08-02T09:24:42;1.10;;;1.10;;
17650;SDS011;26663;59.302;18.082;2022-08-02T09:27:49;1.23;;;1.20;;
17650;SDS011;26663;59.302;18.082;2022-08-02T09:30:56;1.60;;;1.10;;
17650;SDS011;26663;59.302;18.082;2022-08-02T09:34:08;1.33;;;1.25;;
17650;SDS011;26663;59.302;18.082;2022-08-02T09:37:20;2.05;;;1.35;;
17650;SDS011;26663;59.302;18.082;2022-08-02T09:40:33;1.70;;;1.60;;
17650;SDS011;26663;59.302;18.082;2022-08-02T09:43:39;1.10;;;1.02;;
17650;SDS011;26663;59.302;18.082;2022-08-02T09:47:12;3.95;;;1.30;;
17650;SDS011;26663;59.302;18.082;2022-08-02T09:50:20;1.00;;;1.00;;
17650;SDS011;26663;59.302;18.082;2022-08-02T09:53:25;1.20;;;1.20;;
17650;SDS011;26663;59.302;18.082;2022-08-02T09:56:38;1.10;;;1.08;;
17650;SDS011;26663;59.302;18.082;2022-08-02T09:59:51;2.85;;;1.27;;
17650;SDS011;26663;59.302;18.082;2022-08-02T10:03:04;1.10;;;1.10;;
17650;SDS011;26663;59.302;18.082;2022-08-02T10:06:16;2.15;;;1.25;;
17650;SDS011;26663;59.302;18.082;2022-08-02T10:09:21;1.10;;;1.10;;
17650;SDS011;26663;59.302;18.082;2022-08-02T10:12:26;1.00;;;1.00;;
17650;SDS011;26663;59.302;18.082;2022-08-02T10:15:32;1.00;;;1.00;;
17650;SDS011;26663;59.302;18.082;2022-08-02T10:18:37;1.17;;;0.80;;
17650;SDS011;26663;59.302;18.082;2022-08-02T10:21:47;1.40;;;1.30;;
17650;SDS011;26663;59.302;18.082;2022-08-02T10:24:56;1.73;;;1.05;;
17650;SDS011;26663;59.302;18.082;2022-08-02T10:28:01;1.25;;;1.05;;
17650;SDS011;26663;59.302;18.082;2022-08-02T10:31:08;3.92;;;1.00;;
17650;SDS011;26663;59.302;18.082;2022-08-02T10:34:16;0.90;;;0.90;;
17650;SDS011;26663;59.302;18.082;2022-08-02T10:37:27;1.88;;;0.90;;
17650;SDS011;26663;59.302;18.082;2022-08-02T10:40:41;0.93;;;0.93;;
17650;SDS011;26663;59.302;18.082;2022-08-02T10:43:48;1.00;;;1.00;;
17650;SDS011;26663;59.302;18.082;2022-08-02T10:54:08;0.70;;;0.70;;
17650;SDS011;26663;59.302;18.082;2022-08-02T10:57:14;0.80;;;0.80;;
17650;SDS011;26663;59.302;18.082;2022-08-02T11:00:25;12.70;;;1.90;;
17650;SDS011;26663;59.302;18.082;2022-08-02T11:03:34;1.40;;;0.70;;
17650;SDS011;26663;59.302;18.082;2022-08-02T11:10:27;2.55;;;0.80;;
17650;SDS011;26663;59.302;18.082;2022-08-02T11:17:06;0.90;;;0.90;;
17650;SDS011;26663;59.302;18.082;2022-08-02T11:20:16;0.70;;;0.70;;
17650;SDS011;26663;59.302;18.082;2022-08-02T11:23:33;0.80;;;0.80;;
17650;SDS011;26663;59.302;18.082;2022-08-02T11:26:49;1.02;;;1.02;;
17650;SDS011;26663;59.302;18.082;2022-08-02T11:29:55;1.00;;;1.00;;
17650;SDS011;26663;59.302;18.082;2022-08-02T11:33:00;1.48;;;1.35;;
17650;SDS011;26663;59.302;18.082;2022-08-02T11:36:06;1.00;;;1.00;;
17650;SDS011;26663;59.302;18.082;2022-08-02T11:39:12;0.90;;;0.90;;
17650;SDS011;26663;59.302;18.082;2022-08-02T11:42:20;1.45;;;0.90;;
17650;SDS011;26663;59.302;18.082;2022-08-02T11:45:25;0.90;;;0.90;;
17650;SDS011;26663;59.302;18.082;2022-08-02T11:48:32;2.65;;;0.90;;
17650;SDS011;26663;59.302;18.082;2022-08-02T11:55:04;0.80;;;0.80;;
17650;SDS011;26663;59.302;18.082;2022-08-02T11:58:12;3.97;;;0.82;;
17650;SDS011;26663;59.302;18.082;2022-08-02T12:01:17;0.80;;;0.80;;
17650;SDS011;26663;59.302;18.082;2022-08-02T12:04:24;0.75;;;0.75;;
17650;SDS011;26663;59.302;18.082;2022-08-02T12:07:31;2.15;;;1.05;;
17650;SDS011;26663;59.302;18.082;2022-08-02T12:10:48;0.70;;;0.70;;
17650;SDS011;26663;59.302;18.082;2022-08-02T12:13:55;2.38;;;0.90;;
17650;SDS011;26663;59.302;18.082;2022-08-02T12:17:00;0.90;;;0.90;;
17650;SDS011;26663;59.302;18.082;2022-08-02T12:20:33;3.50;;;0.80;;
17650;SDS011;26663;59.302;18.082;2022-08-02T12:23:41;0.70;;;0.70;;
17650;SDS011;26663;59.302;18.082;2022-08-02T12:27:02;0.73;;;0.73;;
17650;SDS011;26663;59.302;18.082;2022-08-02T12:30:12;0.82;;;0.82;;
17650;SDS011;26663;59.302;18.082;2022-08-02T12:33:42;0.80;;;0.80;;
17650;SDS011;26663;59.302;18.082;2022-08-02T12:36:59;0.60;;;0.60;;
17650;SDS011;26663;59.302;18.082;2022-08-02T12:40:20;0.70;;;0.70;;
17650;SDS011;26663;59.302;18.082;2022-08-02T12:43:29;1.70;;;0.80;;
17650;SDS011;26663;59.302;18.082;2022-08-02T12:46:36;1.23;;;0.70;;
17650;SDS011;26663;59.302;18.082;2022-08-02T12:53:16;1.10;;;1.10;;
17650;SDS011;26663;59.302;18.082;2022-08-02T12:56:28;0.85;;;0.60;;
17650;SDS011;26663;59.302;18.082;2022-08-02T12:59:36;0.70;;;0.70;;
17650;SDS011;26663;59.302;18.082;2022-08-02T13:02:44;2.53;;;0.90;;
17650;SDS011;26663;59.302;18.082;2022-08-02T13:05:50;0.80;;;0.80;;
17650;SDS011;26663;59.302;18.082;2022-08-02T13:09:00;0.73;;;0.73;;
17650;SDS011;26663;59.302;18.082;2022-08-02T13:12:08;0.73;;;0.73;;
17650;SDS011;26663;59.302;18.082;2022-08-02T13:15:14;1.10;;;0.73;;
17650;SDS011;26663;59.302;18.082;2022-08-02T13:18:41;4.10;;;0.70;;
17650;SDS011;26663;59.302;18.082;2022-08-02T13:21:47;0.80;;;0.80;;
17650;SDS011;26663;59.302;18.082;2022-08-02T13:25:05;0.73;;;0.73;;
17650;SDS011;26663;59.302;18.082;2022-08-02T13:28:13;1.65;;;0.50;;
17650;SDS011;26663;59.302;18.082;2022-08-02T13:31:18;0.63;;;0.63;;
17650;SDS011;26663;59.302;18.082;2022-08-02T13:34:40;2.65;;;0.70;;
17650;SDS011;26663;59.302;18.082;2022-08-02T13:37:45;0.70;;;0.70;;
17650;SDS011;26663;59.302;18.082;2022-08-02T13:40:50;1.17;;;0.60;;
17650;SDS011;26663;59.302;18.082;2022-08-02T13:44:16;0.70;;;0.70;;
17650;SDS011;26663;59.302;18.082;2022-08-02T13:47:21;0.85;;;0.85;;
17650;SDS011;26663;59.302;18.082;2022-08-02T13:50:40;1.52;;;0.73;;
17650;SDS011;26663;59.302;18.082;2022-08-02T13:53:45;2.40;;;0.70;;
17650;SDS011;26663;59.302;18.082;2022-08-02T13:56:50;1.80;;;1.00;;
17650;SDS011;26663;59.302;18.082;2022-08-02T13:59:56;0.70;;;0.70;;
17650;SDS011;26663;59.302;18.082;2022-08-02T14:03:04;1.02;;;0.80;;
17650;SDS011;26663;59.302;18.082;2022-08-02T14:06:15;2.92;;;1.42;;
17650;SDS011;26663;59.302;18.082;2022-08-02T14:09:20;5.03;;;4.72;;
17650;SDS011;26663;59.302;18.082;2022-08-02T14:12:26;2.08;;;1.80;;
17650;SDS011;26663;59.302;18.082;2022-08-02T14:15:31;1.88;;;1.60;;
17650;SDS011;26663;59.302;18.082;2022-08-02T14:18:36;1.40;;;1.30;;
17650;SDS011;26663;59.302;18.082;2022-08-02T14:21:43;3.92;;;1.20;;
17650;SDS011;26663;59.302;18.082;2022-08-02T14:24:50;1.48;;;1.40;;
17650;SDS011;26663;59.302;18.082;2022-08-02T14:27:55;3.17;;;1.73;;
17650;SDS011;26663;59.302;18.082;2022-08-02T14:31:00;1.60;;;1.40;;
17650;SDS011;26663;59.302;18.082;2022-08-02T14:34:05;1.33;;;1.23;;
17650;SDS011;26663;59.302;18.082;2022-08-02T14:37:12;2.65;;;1.40;;
17650;SDS011;26663;59.302;18.082;2022-08-02T14:40:18;3.83;;;1.20;;
17650;SDS011;26663;59.302;18.082;2022-08-02T14:43:33;9.90;;;1.50;;
17650;SDS011;26663;59.302;18.082;2022-08-02T14:46:57;1.88;;;1.13;;
17650;SDS011;26663;59.302;18.082;2022-08-02T14:50:02;3.60;;;1.15;;
17650;SDS011;26663;59.302;18.082;2022-08-02T14:53:11;2.10;;;2.00;;
17650;SDS011;26663;59.302;18.082;2022-08-02T14:56:16;2.10;;;2.10;;
17650;SDS011;26663;59.302;18.082;2022-08-02T14:59:21;2.78;;;1.75;;
17650;SDS011;26663;59.302;18.082;2022-08-02T15:02:27;3.58;;;1.55;;
17650;SDS011;26663;59.302;18.082;2022-08-02T15:05:32;4.53;;;1.30;;
17650;SDS011;26663;59.302;18.082;2022-08-02T15:08:38;3.60;;;1.25;;
17650;SDS011;26663;59.302;18.082;2022-08-02T15:11:44;1.35;;;1.35;;
17650;SDS011;26663;59.302;18.082;2022-08-02T15:14:51;1.27;;;1.27;;
17650;SDS011;26663;59.302;18.082;2022-08-02T15:17:57;1.40;;;1.30;;
17650;SDS011;26663;59.302;18.082;2022-08-02T15:21:02;2.30;;;1.50;;
17650;SDS011;26663;59.302;18.082;2022-08-02T15:24:29;1.10;;;1.10;;
17650;SDS011;26663;59.302;18.082;2022-08-02T15:27:34;1.85;;;1.30;;
17650;SDS011;26663;59.302;18.082;2022-08-02T15:30:41;1.40;;;1.40;;
17650;SDS011;26663;59.302;18.082;2022-08-02T15:33:47;1.05;;;1.05;;
17650;SDS011;26663;59.302;18.082;2022-08-02T15:36:52;1.30;;;1.30;;
17650;SDS011;26663;59.302;18.082;2022-08-02T15:39:59;3.90;;;1.45;;
17650;SDS011;26663;59.302;18.082;2022-08-02T15:43:05;1.33;;;1.30;;
17650;SDS011;26663;59.302;18.082;2022-08-02T15:46:12;1.85;;;1.40;;
17650;SDS011;26663;59.302;18.082;2022-08-02T15:49:17;1.40;;;1.30;;
17650;SDS011;26663;59.302;18.082;2022-08-02T15:52:26;1.10;;;1.10;;
17650;SDS011;26663;59.302;18.082;2022-08-02T15:55:36;1.08;;;1.00;;
17650;SDS011;26663;59.302;18.082;2022-08-02T15:59:02;3.33;;;1.30;;
17650;SDS011;26663;59.302;18.082;2022-08-02T16:02:07;3.05;;;1.73;;
17650;SDS011;26663;59.302;18.082;2022-08-02T16:05:13;3.28;;;1.33;;
17650;SDS011;26663;59.302;18.082;2022-08-02T16:08:20;3.78;;;1.30;;
17650;SDS011;26663;59.302;18.082;2022-08-02T16:11:27;1.00;;;1.00;;
17650;SDS011;26663;59.302;18.082;2022-08-02T16:14:33;13.65;;;5.30;;
17650;SDS011;26663;59.302;18.082;2022-08-02T16:17:38;3.00;;;2.83;;
17650;SDS011;26663;59.302;18.082;2022-08-02T16:20:56;7.03;;;3.40;;
17650;SDS011;26663;59.302;18.082;2022-08-02T16:24:01;1.58;;;1.20;;
17650;SDS011;26663;59.302;18.082;2022-08-02T16:27:10;1.40;;;1.30;;
17650;SDS011;26663;59.302;18.082;2022-08-02T16:30:15;5.38;;;1.60;;
17650;SDS011;26663;59.302;18.082;2022-08-02T16:33:21;1.70;;;1.60;;
17650;SDS011;26663;59.302;18.082;2022-08-02T16:36:26;12.80;;;11.45;;
17650;SDS011;26663;59.302;18.082;2022-08-02T16:39:32;13.38;;;12.15;;
17650;SDS011;26663;59.302;18.082;2022-08-02T16:42:39;2.85;;;2.75;;
17650;SDS011;26663;59.302;18.082;2022-08-02T16:45:53;3.25;;;3.00;;
17650;SDS011;26663;59.302;18.082;2022-08-02T16:48:58;2.75;;;2.10;;
17650;SDS011;26663;59.302;18.082;2022-08-02T16:52:04;4.43;;;1.40;;
17650;SDS011;26663;59.302;18.082;2022-08-02T16:55:11;1.30;;;1.30;;
17650;SDS011;26663;59.302;18.082;2022-08-02T16:58:18;2.75;;;1.00;;
17650;SDS011;26663;59.302;18.082;2022-08-02T17:01:24;1.13;;;1.00;;
17650;SDS011;26663;59.302;18.082;2022-08-02T17:04:49;1.33;;;0.88;;
17650;SDS011;26663;59.302;18.082;2022-08-02T17:07:54;1.45;;;1.00;;
17650;SDS011;26663;59.302;18.082;2022-08-02T17:11:18;1.02;;;1.02;;
17650;SDS011;26663;59.302;18.082;2022-08-02T17:14:45;2.65;;;1.00;;
17650;SDS011;26663;59.302;18.082;2022-08-02T17:17:58;1.00;;;1.00;;
17650;SDS011;26663;59.302;18.082;2022-08-02T17:21:04;1.00;;;1.00;;
17650;SDS011;26663;59.302;18.082;2022-08-02T17:24:10;2.05;;;1.00;;
17650;SDS011;26663;59.302;18.082;2022-08-02T17:27:15;1.85;;;1.02;;
17650;SDS011;26663;59.302;18.082;2022-08-02T17:30:23;2.25;;;1.08;;
17650;SDS011;26663;59.302;18.082;2022-08-02T17:33:29;1.20;;;1.20;;
17650;SDS011;26663;59.302;18.082;2022-08-02T17:36:35;1.13;;;0.70;;
17650;SDS011;26663;59.302;18.082;2022-08-02T17:39:40;1.00;;;0.90;;
17650;SDS011;26663;59.302;18.082;2022-08-02T17:42:54;0.90;;;0.90;;
17650;SDS011;26663;59.302;18.082;2022-08-02T17:46:01;2.05;;;1.00;;
17650;SDS011;26663;59.302;18.082;2022-08-02T17:49:09;1.60;;;1.08;;
17650;SDS011;26663;59.302;18.082;2022-08-02T17:52:23;0.80;;;0.80;;
17650;SDS011;26663;59.302;18.082;2022-08-02T17:55:48;2.40;;;1.00;;
17650;SDS011;26663;59.302;18.082;2022-08-02T17:58:53;1.83;;;1.00;;
17650;SDS011;26663;59.302;18.082;2022-08-02T18:01:59;1.00;;;1.00;;
17650;SDS011;26663;59.302;18.082;2022-08-02T18:05:08;0.95;;;0.95;;
17650;SDS011;26663;59.302;18.082;2022-08-02T18:08:17;2.45;;;0.90;;
17650;SDS011;26663;59.302;18.082;2022-08-02T18:11:25;1.10;;;1.10;;
17650;SDS011;26663;59.302;18.082;2022-08-02T18:14:50;1.75;;;1.40;;
17650;SDS011;26663;59.302;18.082;2022-08-02T18:17:57;1.13;;;1.13;;
17650;SDS011;26663;59.302;18.082;2022-08-02T18:21:02;1.35;;;1.10;;
17650;SDS011;26663;59.302;18.082;2022-08-02T18:24:24;1.95;;;1.30;;
17650;SDS011;26663;59.302;18.082;2022-08-02T18:27:31;1.20;;;1.20;;
17650;SDS011;26663;59.302;18.082;2022-08-02T18:30:41;1.20;;;1.20;;
17650;SDS011;26663;59.302;18.082;2022-08-02T18:33:48;1.50;;;1.40;;
17650;SDS011;26663;59.302;18.082;2022-08-02T18:37:03;1.40;;;1.20;;
17650;SDS011;26663;59.302;18.082;2022-08-02T18:40:10;2.90;;;1.20;;
17650;SDS011;26663;59.302;18.082;2022-08-02T18:43:16;3.15;;;1.30;;
17650;SDS011;26663;59.302;18.082;2022-08-02T18:46:27;1.40;;;1.40;;
17650;SDS011;26663;59.302;18.082;2022-08-02T18:49:34;1.25;;;1.25;;
17650;SDS011;26663;59.302;18.082;2022-08-02T18:52:53;1.33;;;1.30;;
17650;SDS011;26663;59.302;18.082;2022-08-02T18:55:59;1.33;;;1.30;;
17650;SDS011;26663;59.302;18.082;2022-08-02T18:59:06;1.30;;;1.30;;
17650;SDS011;26663;59.302;18.082;2022-08-02T19:02:13;1.33;;;1.33;;